Terminal Aerodrome Forecast
Issued by NWS

Home | Current Version | Previous Version | Text Only | Print | Product List | Glossary On
Versions: 1 2 3 4 5 6 7 8 9 10 11 12
035
FTUS45 KABQ 241740
TAFTCC
TAF
KTCC 241740Z 2418/2518 09006KT P6SM SKC
     FM241900 28020G30KT P6SM SKC
     FM250100 03008KT P6SM SKC
     FM251700 23012KT P6SM SKC=

USA.gov is the U.S. government's official web portal to all federal, state and local government web resources and services.